Time;durP1;ratioP1;P1;durP2;ratioP2;P2;SDS_P1;SDS_P2;PMS_P1;PMS_P2;Temp;Humidity;BMP_temperature;BMP_pressure;BME280_temperature;BME280_humidity;BME280_pressure;Samples;Min_cycle;Max_cycle;Signal;HPM_P1;HPM_P2
2023/05/08 00:01:25;;;;;;;19.90;8.27;;;14.40;99.90;;;;;;5052751;28;20060;-63
2023/05/08 00:03:51;;;;;;;23.88;8.32;;;14.40;99.90;;;;;;5071360;28;20399;-63
2023/05/08 00:06:19;;;;;;;12.55;6.78;;;14.40;99.90;;;;;;5066769;28;20055;-63
2023/05/08 00:08:46;;;;;;;15.32;7.10;;;14.40;99.90;;;;;;5072091;28;20476;-63
2023/05/08 00:11:12;;;;;;;14.00;7.10;;;14.40;99.90;;;;;;5072088;28;20127;-63
2023/05/08 00:13:40;;;;;;;15.60;7.38;;;14.40;99.90;;;;;;5072913;28;20052;-63
2023/05/08 00:16:11;;;;;;;18.83;8.60;;;14.40;99.90;;;;;;5072783;28;20080;-63
2023/05/08 00:18:38;;;;;;;16.17;7.80;;;14.40;99.90;;;;;;5071778;28;20098;-63
2023/05/08 00:21:05;;;;;;;13.43;7.40;;;14.30;99.90;;;;;;5060852;28;20061;-63
2023/05/08 00:23:32;;;;;;;21.63;8.52;;;14.30;99.90;;;;;;5061748;28;20040;-62
2023/05/08 00:25:59;;;;;;;16.63;7.22;;;14.20;99.90;;;;;;5068939;28;20464;-63
2023/05/08 00:28:26;;;;;;;16.45;7.00;;;14.20;99.90;;;;;;5071159;28;20044;-62
2023/05/08 00:30:53;;;;;;;13.45;5.95;;;14.30;99.90;;;;;;5072504;28;20636;-62
2023/05/08 00:33:19;;;;;;;19.67;7.60;;;14.20;99.90;;;;;;5072320;28;20457;-62
2023/05/08 00:35:46;;;;;;;13.00;6.82;;;14.10;99.90;;;;;;5074211;28;20041;-63
2023/05/08 00:38:17;;;;;;;16.58;7.45;;;14.10;99.90;;;;;;5072003;28;20144;-62
2023/05/08 00:40:43;;;;;;;20.20;8.40;;;14.10;99.90;;;;;;5068373;28;20491;-62
2023/05/08 00:43:10;;;;;;;18.90;7.15;;;14.10;99.90;;;;;;5073475;28;20040;-62
2023/05/08 00:45:38;;;;;;;16.55;6.30;;;14.10;99.90;;;;;;5072223;28;20053;-62
2023/05/08 00:48:06;;;;;;;15.38;7.40;;;14.10;99.90;;;;;;5070590;28;20056;-62
2023/05/08 00:50:33;;;;;;;12.15;6.85;;;14.00;99.90;;;;;;5072211;28;20048;-62
2023/05/08 00:53:00;;;;;;;14.43;7.80;;;13.90;99.90;;;;;;5071397;28;20037;-62
2023/05/08 00:55:27;;;;;;;16.23;7.15;;;13.90;99.90;;;;;;5067964;28;20452;-62
2023/05/08 00:57:53;;;;;;;14.80;6.60;;;13.90;99.90;;;;;;5055866;28;20120;-62
2023/05/08 01:00:21;;;;;;;16.83;7.07;;;13.80;99.90;;;;;;5067425;28;20037;-62
2023/05/08 01:02:47;;;;;;;12.35;6.97;;;13.80;99.90;;;;;;5057956;28;20419;-62
2023/05/08 01:05:14;;;;;;;12.93;6.90;;;13.70;99.90;;;;;;5056502;28;20040;-62
2023/05/08 01:07:41;;;;;;;11.95;6.68;;;13.70;99.90;;;;;;5057824;28;20049;-63
2023/05/08 01:10:09;;;;;;;9.52;6.40;;;13.70;99.90;;;;;;5064750;28;20132;-63
2023/05/08 01:13:09;;;;;;;11.98;6.32;;;13.70;99.90;;;;;;5058893;28;20110;-64
2023/05/08 01:15:42;;;;;;;10.82;5.40;;;13.60;99.90;;;;;;5071724;28;20101;-63
2023/05/08 01:18:16;;;;;;;16.73;6.88;;;13.60;99.90;;;;;;5071263;28;20044;-63
2023/05/08 01:21:12;;;;;;;10.25;5.78;;;13.60;99.90;;;;;;5055912;28;20051;-62
2023/05/08 01:23:53;;;;;;;10.93;5.25;;;13.60;99.90;;;;;;5056147;28;20045;-63
2023/05/08 01:26:37;;;;;;;11.88;5.90;;;13.50;99.90;;;;;;5063071;28;20043;-63
2023/05/08 01:29:23;;;;;;;;;;;13.50;99.90;;;;;;5067770;28;20112;-63
2023/05/08 01:32:22;;;;;;;11.63;6.00;;;13.40;99.90;;;;;;5056961;28;19927;-63
2023/05/08 01:35:07;;;;;;;17.25;6.15;;;13.30;99.90;;;;;;5051067;28;20056;-63
2023/05/08 01:37:44;;;;;;;14.02;6.72;;;13.30;99.90;;;;;;5077978;28;20052;-63
2023/05/08 01:40:35;;;;;;;11.15;5.63;;;13.20;99.90;;;;;;5061768;28;20068;-63
2023/05/08 01:43:40;;;;;;;13.23;5.45;;;13.10;99.90;;;;;;5082309;28;20059;-63
2023/05/08 01:46:11;;;;;;;11.77;5.43;;;13.10;99.90;;;;;;5082289;28;20123;-63
2023/05/08 01:49:04;;;;;;;10.57;4.53;;;13.10;99.90;;;;;;5079070;28;20056;-63
2023/05/08 01:51:47;;;;;;;14.48;7.28;;;13.10;99.90;;;;;;5077905;28;20083;-62
2023/05/08 01:54:15;;;;;;;9.20;5.38;;;13.00;99.90;;;;;;5060678;28;20047;-63
2023/05/08 01:56:43;;;;;;;9.18;5.25;;;13.00;99.90;;;;;;5061617;28;20047;-62
2023/05/08 01:59:12;;;;;;;9.60;5.28;;;13.00;99.90;;;;;;5077936;28;20087;-63
2023/05/08 02:01:39;;;;;;;9.57;5.20;;;13.00;99.90;;;;;;5077704;28;20467;-63
2023/05/08 02:04:07;;;;;;;12.07;5.85;;;13.00;99.90;;;;;;5077706;28;20059;-63
2023/05/08 02:06:34;;;;;;;12.25;5.75;;;12.90;99.90;;;;;;4708894;28;10000473;-63
2023/05/08 02:09:01;;;;;;;15.88;5.88;;;12.90;99.90;;;;;;5075407;28;20044;-62
2023/05/08 02:11:28;;;;;;;13.25;6.07;;;12.90;99.90;;;;;;5077031;28;20138;-63
2023/05/08 02:13:55;;;;;;;8.23;5.15;;;12.80;99.90;;;;;;5077809;28;20385;-63
2023/05/08 02:16:21;;;;;;;10.98;5.45;;;12.80;99.90;;;;;;5060143;28;20058;-63
2023/05/08 02:18:51;;;;;;;9.65;4.82;;;12.80;99.90;;;;;;5060512;28;20049;-63
2023/05/08 02:21:17;;;;;;;8.48;4.75;;;12.80;99.90;;;;;;5077636;28;20513;-62
2023/05/08 02:23:44;;;;;;;9.77;5.32;;;12.80;99.90;;;;;;5046469;28;20049;-63
2023/05/08 02:26:12;;;;;;;7.90;4.40;;;12.80;99.90;;;;;;5075688;28;20041;-63
2023/05/08 02:28:39;;;;;;;9.93;4.70;;;12.70;99.90;;;;;;5063780;28;20068;-63
2023/05/08 02:31:06;;;;;;;9.10;4.05;;;12.70;99.90;;;;;;5064633;28;20063;-63
2023/05/08 02:33:33;;;;;;;9.52;5.20;;;12.70;99.90;;;;;;5067701;28;20067;-62
2023/05/08 02:36:00;;;;;;;12.45;5.30;;;12.70;99.90;;;;;;5062036;28;20051;-63
2023/05/08 02:38:27;;;;;;;8.98;4.85;;;12.60;99.90;;;;;;5073497;28;20057;-63
2023/05/08 02:40:56;;;;;;;14.93;4.47;;;12.70;99.90;;;;;;5065134;28;20044;-63
2023/05/08 02:43:23;;;;;;;8.48;4.82;;;12.60;99.90;;;;;;5063818;28;20049;-63
2023/05/08 02:46:17;;;;;;;7.18;4.10;;;12.50;99.90;;;;;;5070967;28;20502;-63
2023/05/08 02:48:53;;;;;;;16.25;4.70;;;12.50;99.90;;;;;;5065624;28;20044;-62
2023/05/08 02:51:43;;;;;;;11.75;5.00;;;12.50;99.90;;;;;;5058910;28;20047;-62
2023/05/08 02:54:15;;;;;;;11.75;4.93;;;12.50;99.90;;;;;;5065142;28;20049;-62
2023/05/08 02:57:09;;;;;;;11.63;4.72;;;12.60;99.90;;;;;;5059031;28;20040;-63
2023/05/08 02:59:38;;;;;;;10.73;4.95;;;12.50;99.90;;;;;;5076069;28;20124;-62
2023/05/08 03:02:11;;;;;;;12.25;4.72;;;12.50;99.90;;;;;;5077738;28;20539;-62
2023/05/08 03:04:49;;;;;;;14.55;5.47;;;12.50;99.90;;;;;;5077002;28;20050;-62
2023/05/08 03:07:17;;;;;;;10.27;5.50;;;12.50;99.90;;;;;;5077271;28;20495;-62
2023/05/08 03:09:46;;;;;;;11.48;4.60;;;12.50;99.90;;;;;;5078126;28;20414;-63
2023/05/08 03:12:19;;;;;;;11.70;5.22;;;12.50;99.90;;;;;;5071254;28;20351;-62
2023/05/08 03:14:53;;;;;;;14.98;4.38;;;12.50;99.90;;;;;;5074747;28;20083;-63
2023/05/08 03:17:20;;;;;;;7.00;4.18;;;12.40;99.90;;;;;;5076213;28;20476;-62
2023/05/08 03:19:49;;;;;;;10.40;4.30;;;12.40;99.90;;;;;;5059202;28;20054;-62
2023/05/08 03:22:16;;;;;;;9.82;5.40;;;12.40;99.90;;;;;;5059078;28;20586;-62
2023/05/08 03:24:43;;;;;;;11.95;5.93;;;12.30;99.90;;;;;;5076080;28;20542;-62
2023/05/08 03:27:10;;;;;;;11.15;4.57;;;12.30;99.90;;;;;;5075362;28;20131;-63
2023/05/08 03:29:37;;;;;;;8.38;4.57;;;12.30;99.90;;;;;;5059603;28;20053;-63
2023/05/08 03:32:04;;;;;;;14.32;4.65;;;12.20;99.90;;;;;;5048580;28;20095;-63
2023/05/08 03:34:31;;;;;;;9.55;4.45;;;12.20;99.90;;;;;;5050037;28;20047;-63
2023/05/08 03:36:57;;;;;;;9.13;4.57;;;12.20;99.90;;;;;;5057113;28;20088;-63
2023/05/08 03:39:25;;;;;;;12.00;5.03;;;12.10;99.90;;;;;;5074199;28;20136;-63
2023/05/08 03:41:53;;;;;;;9.30;4.88;;;12.10;99.90;;;;;;5073942;28;20059;-63
2023/05/08 03:44:20;;;;;;;12.80;4.78;;;12.10;99.90;;;;;;5056582;28;20132;-63
2023/05/08 03:46:47;;;;;;;8.38;4.85;;;12.10;99.90;;;;;;5055767;28;20411;-63
2023/05/08 03:49:14;;;;;;;9.55;4.30;;;12.10;99.90;;;;;;5074185;28;20131;-64
2023/05/08 03:51:41;;;;;;;6.70;4.45;;;12.00;99.90;;;;;;5074027;28;20040;-62
2023/05/08 03:54:07;;;;;;;9.80;4.55;;;12.00;99.90;;;;;;5072935;28;20533;-62
2023/05/08 03:56:34;;;;;;;10.55;5.50;;;12.00;99.90;;;;;;5074561;28;20044;-62
2023/05/08 03:59:11;;;;;;;6.97;4.55;;;12.00;99.90;;;;;;5070461;28;20127;-62
2023/05/08 04:01:41;;;;;;;8.07;5.13;;;12.00;99.90;;;;;;5069146;28;20396;-62
2023/05/08 04:04:23;;;;;;;7.93;4.45;;;11.90;99.90;;;;;;5069258;28;20119;-62
2023/05/08 04:06:58;;;;;;;10.65;4.13;;;12.00;99.90;;;;;;5053669;28;20044;-62
2023/05/08 04:09:57;;;;;;;9.25;4.18;;;11.90;99.90;;;;;;5048873;28;20115;-62
2023/05/08 04:12:32;;;;;;;5.70;3.30;;;11.90;99.90;;;;;;5074230;28;20070;-62
2023/05/08 04:15:12;;;;;;;8.98;3.55;;;11.80;99.90;;;;;;5069862;28;20664;-62
2023/05/08 04:17:42;;;;;;;8.38;4.00;;;11.70;99.90;;;;;;5065691;28;20048;-62
2023/05/08 04:20:12;;;;;;;7.80;4.13;;;11.70;99.90;;;;;;5052786;28;20036;-62
2023/05/08 04:22:39;;;;;;;9.15;5.03;;;11.60;99.90;;;;;;5073620;28;20056;-62
2023/05/08 04:25:06;;;;;;;6.22;4.13;;;11.60;99.90;;;;;;5072878;28;20067;-62
2023/05/08 04:27:34;;;;;;;7.35;4.00;;;11.60;99.90;;;;;;5072282;28;20132;-62
2023/05/08 04:30:01;;;;;;;9.32;4.40;;;11.60;99.90;;;;;;5072335;28;20041;-62
2023/05/08 04:32:28;;;;;;;12.23;4.80;;;11.70;99.90;;;;;;5074271;28;20078;-62
2023/05/08 04:34:55;;;;;;;7.85;3.78;;;11.70;99.90;;;;;;5071578;28;20044;-62
2023/05/08 04:37:25;;;;;;;7.80;3.70;;;11.70;99.90;;;;;;5068504;28;20048;-62
2023/05/08 04:39:52;;;;;;;9.13;4.32;;;11.70;99.90;;;;;;5059339;28;20048;-62
2023/05/08 04:42:20;;;;;;;12.88;5.18;;;11.70;99.90;;;;;;5064483;28;20059;-63
2023/05/08 04:44:47;;;;;;;6.97;4.00;;;11.70;99.90;;;;;;5068694;28;20048;-61
2023/05/08 04:47:13;;;;;;;11.82;5.55;;;11.70;99.90;;;;;;5066716;28;20048;-61
2023/05/08 04:49:40;;;;;;;11.73;4.95;;;11.80;99.90;;;;;;5063722;28;20059;-63
2023/05/08 04:52:07;;;;;;;12.65;4.95;;;11.80;99.90;;;;;;5069035;28;20067;-63
2023/05/08 04:54:34;;;;;;;8.27;4.45;;;11.90;99.90;;;;;;5073609;28;20127;-62
2023/05/08 04:57:00;;;;;;;10.35;4.50;;;11.90;99.90;;;;;;5073410;28;20045;-62
2023/05/08 04:59:28;;;;;;;9.30;4.22;;;11.90;99.90;;;;;;5073895;28;20055;-63
2023/05/08 05:01:55;;;;;;;8.90;4.80;;;11.90;99.90;;;;;;5073569;28;20052;-62
2023/05/08 05:04:22;;;;;;;8.52;4.28;;;12.00;99.90;;;;;;5072290;28;20060;-62
2023/05/08 05:06:49;;;;;;;10.25;4.80;;;12.00;99.90;;;;;;5073770;28;20503;-62
2023/05/08 05:09:16;;;;;;;9.93;4.57;;;12.00;99.90;;;;;;5071942;28;20598;-62
2023/05/08 05:11:43;;;;;;;27.55;6.07;;;12.10;99.90;;;;;;5073858;28;20047;-63
2023/05/08 05:14:10;;;;;;;16.85;5.38;;;12.10;99.90;;;;;;5073707;28;20352;-63
2023/05/08 05:16:36;;;;;;;20.05;4.97;;;12.10;99.90;;;;;;5068812;28;20124;-62
2023/05/08 05:19:03;;;;;;;20.98;5.95;;;12.20;99.90;;;;;;5063356;28;20098;-63
2023/05/08 05:21:31;;;;;;;10.35;4.65;;;12.30;99.90;;;;;;5064579;28;20057;-63
2023/05/08 05:23:57;;;;;;;7.95;4.80;;;12.30;99.90;;;;;;5068353;28;20123;-63
2023/05/08 05:26:24;;;;;;;11.80;4.82;;;12.40;99.90;;;;;;5058991;28;20040;-63
2023/05/08 05:28:51;;;;;;;9.77;4.40;;;12.50;99.90;;;;;;5066505;28;20044;-62
2023/05/08 05:31:17;;;;;;;11.23;3.33;;;12.50;99.90;;;;;;5060659;28;20049;-63
2023/05/08 05:33:45;;;;;;;9.32;3.85;;;12.60;99.90;;;;;;5060208;28;20063;-63
2023/05/08 05:36:12;;;;;;;10.45;3.67;;;12.60;99.90;;;;;;5072050;28;20055;-66
2023/05/08 05:38:38;;;;;;;7.55;3.67;;;12.70;99.90;;;;;;5066832;28;20067;-62
2023/05/08 05:41:05;;;;;;;14.38;4.53;;;12.80;99.90;;;;;;5073493;28;20045;-63
2023/05/08 05:43:32;;;;;;;13.27;4.03;;;12.80;99.90;;;;;;5066967;28;20079;-62
2023/05/08 05:46:06;;;;;;;6.90;3.22;;;12.90;99.90;;;;;;5062080;28;20475;-62
2023/05/08 05:48:33;;;;;;;11.23;3.50;;;12.90;99.90;;;;;;5067092;28;20044;-63
2023/05/08 05:50:59;;;;;;;10.23;3.42;;;12.90;99.90;;;;;;5064453;28;20044;-63
2023/05/08 05:53:26;;;;;;;9.30;3.70;;;13.00;99.90;;;;;;5057791;28;20049;-63
2023/05/08 05:55:53;;;;;;;6.55;3.75;;;13.00;99.90;;;;;;5059525;28;20087;-62
2023/05/08 05:58:20;;;;;;;8.05;3.47;;;13.00;99.90;;;;;;5064594;28;20053;-63
2023/05/08 06:00:48;;;;;;;10.15;4.25;;;13.00;99.90;;;;;;5057375;28;20494;-62
2023/05/08 06:03:15;;;;;;;8.18;3.75;;;13.10;99.90;;;;;;5058148;28;20051;-62
2023/05/08 06:05:42;;;;;;;8.38;4.10;;;13.10;99.90;;;;;;5068049;28;20044;-62
2023/05/08 06:08:10;;;;;;;8.70;4.18;;;13.20;99.90;;;;;;5058128;28;20128;-63
2023/05/08 06:10:36;;;;;;;10.77;4.72;;;13.30;99.90;;;;;;5068031;28;20578;-62
2023/05/08 06:13:03;;;;;;;8.98;3.60;;;13.30;99.90;;;;;;5059973;28;20500;-62
2023/05/08 06:15:30;;;;;;;8.52;3.35;;;13.40;99.90;;;;;;5067475;28;20643;-62
2023/05/08 06:17:57;;;;;;;8.95;4.40;;;13.30;99.90;;;;;;5070029;28;20041;-61
2023/05/08 06:20:25;;;;;;;7.43;4.15;;;13.40;99.90;;;;;;5062674;28;20044;-62
2023/05/08 06:22:52;;;;;;;10.48;4.88;;;13.40;99.90;;;;;;5073115;28;20090;-62
2023/05/08 06:25:19;;;;;;;10.13;4.95;;;13.40;99.90;;;;;;5070737;28;20701;-62
2023/05/08 06:27:46;;;;;;;11.82;4.90;;;13.40;99.90;;;;;;5066807;28;20045;-62
2023/05/08 06:30:12;;;;;;;9.20;4.72;;;13.50;99.90;;;;;;5060170;28;20049;-62
2023/05/08 06:32:39;;;;;;;9.30;5.05;;;13.60;99.90;;;;;;5064984;28;20079;-62
2023/05/08 06:35:06;;;;;;;13.73;6.00;;;13.70;99.90;;;;;;5071725;28;20051;-62
2023/05/08 06:37:33;;;;;;;14.25;5.38;;;13.70;99.90;;;;;;5066724;28;20049;-62
2023/05/08 06:40:00;;;;;;;9.88;5.93;;;13.80;99.90;;;;;;5065324;28;20131;-62
2023/05/08 06:42:38;;;;;;;13.40;5.70;;;13.80;99.90;;;;;;5074706;28;20044;-62
2023/05/08 06:45:05;;;;;;;9.57;4.72;;;13.80;99.90;;;;;;5067071;28;20100;-62
2023/05/08 06:47:32;;;;;;;15.73;4.55;;;13.80;99.90;;;;;;5068472;28;20056;-62
2023/05/08 06:49:59;;;;;;;9.70;4.82;;;13.90;99.90;;;;;;5060470;28;20113;-63
2023/05/08 06:52:26;;;;;;;11.60;5.55;;;14.00;99.90;;;;;;5068001;28;20106;-62
2023/05/08 06:54:53;;;;;;;8.80;4.32;;;14.00;99.90;;;;;;5074510;28;20041;-62
2023/05/08 06:57:19;;;;;;;7.85;4.47;;;14.00;99.90;;;;;;5074164;28;20454;-62
2023/05/08 06:59:46;;;;;;;9.00;4.53;;;14.10;99.90;;;;;;5073634;28;20072;-63
2023/05/08 07:02:14;;;;;;;8.70;4.68;;;14.20;99.90;;;;;;5074924;28;20043;-63
2023/05/08 07:04:43;;;;;;;7.93;4.40;;;14.30;99.90;;;;;;5074502;28;20048;-62
2023/05/08 07:07:10;;;;;;;7.72;4.00;;;14.30;99.90;;;;;;5070372;28;20135;-62
2023/05/08 07:09:37;;;;;;;7.20;4.38;;;14.30;99.90;;;;;;5060448;28;20099;-62
2023/05/08 07:12:04;;;;;;;8.63;4.75;;;14.40;99.90;;;;;;5074080;28;20036;-62
2023/05/08 07:14:30;;;;;;;10.05;4.82;;;14.40;99.90;;;;;;5075369;28;20432;-62
2023/05/08 07:16:57;;;;;;;6.70;4.10;;;14.40;99.90;;;;;;5074587;28;20044;-62
2023/05/08 07:19:24;;;;;;;7.82;4.35;;;14.40;99.90;;;;;;5074747;28;20135;-63
2023/05/08 07:21:51;;;;;;;7.47;4.95;;;14.30;99.90;;;;;;5074981;28;20071;-63
2023/05/08 07:24:19;;;;;;;10.95;4.85;;;14.40;99.90;;;;;;5075250;28;20045;-63
2023/05/08 07:26:46;;;;;;;7.40;3.60;;;14.40;99.90;;;;;;5074647;28;20419;-63
2023/05/08 07:29:12;;;;;;;7.20;4.75;;;14.20;99.90;;;;;;5073162;28;20093;-62
2023/05/08 07:31:40;;;;;;;13.82;5.03;;;14.10;99.90;;;;;;5072210;28;20080;-62
2023/05/08 07:34:07;;;;;;;8.60;5.40;;;14.10;99.90;;;;;;5072837;28;20060;-62
2023/05/08 07:36:34;;;;;;;7.95;5.25;;;14.20;99.90;;;;;;5070305;28;20131;-62
2023/05/08 07:39:00;;;;;;;6.72;4.45;;;14.30;99.90;;;;;;5061763;28;20048;-62
2023/05/08 07:41:27;;;;;;;10.32;4.75;;;14.20;99.90;;;;;;5067422;28;20049;-61
2023/05/08 07:43:54;;;;;;;6.78;4.40;;;14.20;99.90;;;;;;5058155;28;20049;-61
2023/05/08 07:46:21;;;;;;;5.90;3.90;;;14.30;99.90;;;;;;5065254;28;20041;-61
2023/05/08 07:48:48;;;;;;;6.22;3.90;;;14.40;99.90;;;;;;5065128;28;20053;-62
2023/05/08 07:51:15;;;;;;;8.48;4.22;;;14.30;99.90;;;;;;5067028;28;20037;-63
2023/05/08 07:53:42;;;;;;;6.80;3.85;;;14.30;99.90;;;;;;5058577;28;20111;-62
2023/05/08 07:56:09;;;;;;;7.25;3.65;;;14.40;99.90;;;;;;5072024;28;20044;-62
2023/05/08 07:58:35;;;;;;;7.30;4.45;;;14.30;99.90;;;;;;5067576;28;20108;-62
2023/05/08 08:01:02;;;;;;;7.03;4.18;;;14.30;99.90;;;;;;5053079;28;20068;-62
2023/05/08 08:03:29;;;;;;;6.13;3.60;;;14.40;99.90;;;;;;5049928;28;20048;-62
2023/05/08 08:05:56;;;;;;;6.15;3.40;;;14.30;99.90;;;;;;5063812;28;20072;-63
2023/05/08 08:08:23;;;;;;;6.20;3.55;;;14.30;99.90;;;;;;5066731;28;20467;-62
2023/05/08 08:10:50;;;;;;;7.90;4.13;;;14.30;99.90;;;;;;5062374;28;20210;-62
2023/05/08 08:13:16;;;;;;;8.35;3.72;;;14.30;99.90;;;;;;5071367;28;20041;-63
2023/05/08 08:15:43;;;;;;;8.32;4.22;;;14.40;99.90;;;;;;5071483;28;20051;-62
2023/05/08 08:18:10;;;;;;;8.05;4.00;;;14.40;99.90;;;;;;5071614;28;20052;-63
2023/05/08 08:20:37;;;;;;;10.27;3.47;;;14.50;99.90;;;;;;5070499;28;20066;-63
2023/05/08 08:23:04;;;;;;;7.30;3.45;;;14.50;99.90;;;;;;5058538;28;20062;-63
2023/05/08 08:25:31;;;;;;;5.80;4.05;;;14.60;99.90;;;;;;5060412;28;20053;-62
2023/05/08 08:27:58;;;;;;;8.48;4.30;;;14.60;99.90;;;;;;5069242;28;20462;-62
2023/05/08 08:30:25;;;;;;;9.32;4.10;;;14.50;99.90;;;;;;5058249;28;20127;-63
2023/05/08 08:32:52;;;;;;;5.75;4.20;;;14.40;99.90;;;;;;5068730;28;20124;-63
2023/05/08 08:35:19;;;;;;;8.70;3.78;;;14.50;99.90;;;;;;5045449;28;20044;-64
2023/05/08 08:37:45;;;;;;;7.22;3.88;;;14.50;99.90;;;;;;5058448;28;20040;-63
2023/05/08 08:40:12;;;;;;;13.27;4.10;;;14.50;99.90;;;;;;5057707;28;20080;-64
2023/05/08 08:42:39;;;;;;;7.13;4.32;;;14.60;99.90;;;;;;5063295;28;20067;-63
2023/05/08 08:45:07;;;;;;;7.72;5.78;;;14.60;99.90;;;;;;5060885;28;20558;-63
2023/05/08 08:47:40;;;;;;;6.60;4.25;;;14.70;99.90;;;;;;5061321;28;20095;-64
2023/05/08 08:50:07;;;;;;;10.10;5.03;;;14.70;99.90;;;;;;5059194;28;20469;-63
2023/05/08 08:52:45;;;;;;;9.35;4.78;;;14.90;99.90;;;;;;5061383;28;20316;-63
2023/05/08 08:55:15;;;;;;;8.52;4.97;;;15.00;99.90;;;;;;5072500;28;20052;-63
2023/05/08 08:57:47;;;;;;;11.55;4.40;;;15.10;99.90;;;;;;5043756;28;20048;-63
2023/05/08 09:00:15;;;;;;;6.85;4.10;;;15.20;99.90;;;;;;5071475;28;20051;-64
2023/05/08 09:02:41;;;;;;;8.40;4.55;;;15.20;99.90;;;;;;5072308;28;20125;-62
2023/05/08 09:05:08;;;;;;;4.45;3.50;;;15.40;99.90;;;;;;5072179;28;20048;-62
2023/05/08 09:07:36;;;;;;;6.22;3.45;;;15.50;99.90;;;;;;5064288;28;20462;-62
2023/05/08 09:10:05;;;;;;;10.82;3.90;;;15.60;99.90;;;;;;5047018;28;20127;-63
2023/05/08 09:12:31;;;;;;;10.95;3.38;;;15.80;99.90;;;;;;5067535;28;20128;-63
2023/05/08 09:14:58;;;;;;;10.38;3.47;;;15.90;99.90;;;;;;5066716;28;20048;-63
2023/05/08 09:17:25;;;;;;;5.53;3.65;;;15.90;99.90;;;;;;5058877;28;20045;-63
2023/05/08 09:19:52;;;;;;;5.40;2.78;;;15.90;99.90;;;;;;5068743;28;20040;-62
2023/05/08 09:22:22;;;;;;;5.57;2.03;;;15.90;99.90;;;;;;5050553;28;20049;-62
2023/05/08 09:24:59;;;;;;;6.50;2.53;;;16.00;99.90;;;;;;5061334;28;20056;-62
2023/05/08 09:27:27;;;;;;;8.02;2.08;;;16.10;99.90;;;;;;5070214;28;20138;-62
2023/05/08 09:30:04;;;;;;;6.93;2.17;;;16.10;99.90;;;;;;5061952;28;20047;-62
2023/05/08 09:32:32;;;;;;;5.97;2.63;;;16.10;99.90;;;;;;5056861;28;20057;-62
2023/05/08 09:34:59;;;;;;;6.18;1.85;;;16.10;99.90;;;;;;5066742;28;20047;-62
2023/05/08 09:37:26;;;;;;;4.88;1.58;;;16.00;99.90;;;;;;5055462;28;20073;-64
2023/05/08 09:39:53;;;;;;;6.32;1.77;;;15.90;99.90;;;;;;5065643;28;20052;-63
2023/05/08 09:42:21;;;;;;;4.65;1.25;;;15.90;99.90;;;;;;5061227;28;20045;-65
2023/05/08 09:44:52;;;;;;;5.30;1.48;;;15.90;99.90;;;;;;5053061;28;20203;-63
2023/05/08 09:47:20;;;;;;;7.90;1.77;;;15.90;99.90;;;;;;5063264;28;20037;-63
2023/05/08 09:50:07;;;;;;;3.75;1.45;;;15.90;99.90;;;;;;5059060;28;20053;-63
2023/05/08 09:52:35;;;;;;;5.53;1.60;;;15.80;99.90;;;;;;5069596;28;20056;-63
2023/05/08 09:55:03;;;;;;;5.50;1.80;;;15.80;99.90;;;;;;5056207;28;20075;-63
2023/05/08 09:57:32;;;;;;;4.60;1.75;;;15.80;99.90;;;;;;5075805;28;20128;-63
2023/05/08 10:00:10;;;;;;;6.43;1.63;;;15.70;99.90;;;;;;5073782;28;20052;-64
2023/05/08 10:02:38;;;;;;;4.43;1.48;;;15.80;99.90;;;;;;5044348;28;20052;-63
2023/05/08 10:05:30;;;;;;;6.18;2.15;;;16.00;99.90;;;;;;5072872;28;20049;-62
2023/05/08 10:07:58;;;;;;;7.15;1.60;;;16.10;99.90;;;;;;5063116;28;20084;-63
2023/05/08 10:10:26;;;;;;;11.32;2.42;;;16.10;99.90;;;;;;5055303;28;20045;-62
2023/05/08 10:12:54;;;;;;;5.47;1.30;;;16.10;99.90;;;;;;5071622;28;20131;-64
2023/05/08 10:15:23;;;;;;;6.43;1.35;;;16.00;99.90;;;;;;5072087;28;20045;-63
2023/05/08 10:17:52;;;;;;;10.05;1.88;;;16.10;99.90;;;;;;5074767;28;20045;-64
2023/05/08 10:20:20;;;;;;;8.57;2.25;;;16.10;99.90;;;;;;5074727;28;20075;-63
2023/05/08 10:22:47;;;;;;;8.05;2.15;;;16.10;99.90;;;;;;5074525;28;20057;-62
2023/05/08 10:25:15;;;;;;;3.13;1.30;;;16.10;99.90;;;;;;5076377;28;20466;-63
2023/05/08 10:27:54;;;;;;;5.50;1.90;;;16.20;99.90;;;;;;5076214;28;20083;-64
2023/05/08 10:30:24;;;;;;;6.60;1.73;;;16.30;99.90;;;;;;5075940;28;20379;-63
2023/05/08 10:32:55;;;;;;;5.90;2.03;;;16.40;99.90;;;;;;5076188;28;20074;-63
2023/05/08 10:35:22;;;;;;;5.18;1.33;;;16.50;99.90;;;;;;5062549;28;20048;-63
2023/05/08 10:37:49;;;;;;;7.72;2.00;;;16.40;99.90;;;;;;5073664;28;20128;-63
2023/05/08 10:40:17;;;;;;;5.45;2.03;;;16.40;99.90;;;;;;5075382;28;20480;-63
2023/05/08 10:42:44;;;;;;;9.20;2.25;;;16.40;99.90;;;;;;5076127;28;20055;-64
2023/05/08 10:45:11;;;;;;;8.05;2.80;;;16.30;99.90;;;;;;5076278;28;20060;-62
2023/05/08 10:47:47;;;;;;;4.53;1.40;;;16.40;99.90;;;;;;5077354;28;20120;-62
2023/05/08 10:50:38;;;;;;;8.45;2.45;;;16.40;99.90;;;;;;5059430;28;20098;-63
2023/05/08 10:53:15;;;;;;;9.82;2.17;;;16.50;99.90;;;;;;5066175;28;20068;-63
2023/05/08 10:55:44;;;;;;;7.18;1.88;;;16.60;99.90;;;;;;5061343;28;20454;-63
2023/05/08 10:58:15;;;;;;;5.18;1.42;;;16.80;99.90;;;;;;5075969;28;20123;-63
2023/05/08 11:00:51;;;;;;;7.93;1.77;;;17.00;99.90;;;;;;5075313;28;20697;-62
2023/05/08 11:03:28;;;;;;;7.07;1.85;;;17.00;99.90;;;;;;5071872;28;20075;-62
2023/05/08 11:05:59;;;;;;;3.22;1.30;;;17.20;99.90;;;;;;5061425;28;20045;-63
2023/05/08 11:08:26;;;;;;;4.18;1.50;;;17.30;99.90;;;;;;5070844;28;20051;-63
2023/05/08 11:11:03;;;;;;;7.10;1.70;;;17.20;99.90;;;;;;5070552;28;20082;-64
2023/05/08 11:13:37;;;;;;;6.10;1.45;;;17.10;99.90;;;;;;5062609;28;20048;-64
2023/05/08 11:16:05;;;;;;;;;;;17.10;99.90;;;;;;5074331;28;20048;-64
2023/05/08 11:18:32;;;;;;;3.28;1.40;;;17.10;99.90;;;;;;5071719;28;19971;-64
2023/05/08 11:21:07;;;;;;;3.75;1.85;;;17.10;99.90;;;;;;5070866;28;20052;-66
2023/05/08 11:23:35;;;;;;;6.10;2.08;;;17.00;99.90;;;;;;5066994;28;20444;-65
2023/05/08 11:26:11;;;;;;;6.07;1.73;;;16.80;99.90;;;;;;5072767;28;20040;-64
2023/05/08 11:28:39;;;;;;;6.20;1.40;;;16.80;99.90;;;;;;5069929;28;20446;-64
2023/05/08 11:31:06;;;;;;;7.45;1.30;;;16.80;99.90;;;;;;5055773;28;20045;-64
2023/05/08 11:33:36;;;;;;;7.07;1.60;;;16.80;99.90;;;;;;5068790;28;20106;-64
2023/05/08 11:36:16;;;;;;;4.15;1.10;;;16.80;99.90;;;;;;5071526;28;20507;-63
2023/05/08 11:38:43;;;;;;;2.90;1.08;;;16.80;99.90;;;;;;5072176;28;20052;-64
2023/05/08 11:41:18;;;;;;;6.10;1.45;;;16.90;99.90;;;;;;5070620;28;20044;-64
2023/05/08 11:44:04;;;;;;;3.55;1.23;;;17.00;99.90;;;;;;5056201;28;20040;-63
2023/05/08 11:46:47;;;;;;;6.95;1.40;;;17.10;99.90;;;;;;5071667;28;20124;-64
2023/05/08 11:49:17;;;;;;;4.10;1.52;;;17.00;99.90;;;;;;5070544;28;20079;-64
2023/05/08 11:51:56;;;;;;;9.18;1.33;;;16.70;99.90;;;;;;5067935;28;20124;-64
2023/05/08 11:54:24;;;;;;;9.77;2.38;;;16.70;99.90;;;;;;5051781;28;20103;-62
2023/05/08 11:56:52;;;;;;;5.97;1.60;;;16.70;99.90;;;;;;5064148;28;20060;-63
2023/05/08 11:59:22;;;;;;;5.57;2.10;;;16.60;99.90;;;;;;5050097;28;20076;-63
2023/05/08 12:01:49;;;;;;;10.05;3.20;;;16.70;99.90;;;;;;5061196;28;20062;-63
2023/05/08 12:04:45;;;;;;;9.02;1.88;;;16.50;99.90;;;;;;5066054;28;20066;-63
2023/05/08 12:07:12;;;;;;;8.23;1.45;;;16.40;99.90;;;;;;5065196;28;20045;-63
2023/05/08 12:09:39;;;;;;;4.93;1.63;;;16.60;99.90;;;;;;5066875;28;20052;-63
2023/05/08 12:12:06;;;;;;;6.22;1.15;;;16.60;99.90;;;;;;5064711;28;20055;-63
2023/05/08 12:14:33;;;;;;;5.20;1.48;;;16.50;99.90;;;;;;5060224;28;20041;-63
2023/05/08 12:17:01;;;;;;;3.65;1.38;;;16.40;99.90;;;;;;4711465;28;10000180;-63
2023/05/08 12:19:28;;;;;;;2.80;1.08;;;16.30;99.90;;;;;;5067944;28;20079;-63
2023/05/08 12:21:56;;;;;;;11.00;1.15;;;16.20;99.90;;;;;;5071798;28;20187;-63
2023/05/08 12:24:24;;;;;;;5.03;1.52;;;16.10;99.90;;;;;;5070146;28;20067;-63
2023/05/08 12:26:55;;;;;;;8.80;1.35;;;16.10;99.90;;;;;;5051740;28;20055;-63
2023/05/08 12:29:22;;;;;;;3.53;1.15;;;16.30;99.90;;;;;;5065663;28;20056;-63
2023/05/08 12:31:50;;;;;;;4.20;1.35;;;16.50;99.90;;;;;;5069196;28;20121;-63
2023/05/08 12:34:17;;;;;;;8.77;2.20;;;16.60;99.90;;;;;;5068073;28;20341;-64
2023/05/08 12:36:44;;;;;;;2.95;1.20;;;16.40;99.90;;;;;;5049534;28;20341;-63
2023/05/08 12:39:11;;;;;;;5.55;1.77;;;16.50;99.90;;;;;;5067691;28;20063;-64
2023/05/08 12:41:48;;;;;;;5.93;1.85;;;16.50;99.90;;;;;;5068726;28;20052;-63
2023/05/08 12:44:24;;;;;;;7.38;3.38;;;16.40;99.90;;;;;;5068466;28;20053;-64
2023/05/08 12:46:52;;;;;;;4.70;1.80;;;16.20;99.90;;;;;;5067124;28;20131;-64
2023/05/08 12:49:29;;;;;;;5.57;1.98;;;16.10;99.90;;;;;;5066765;28;20068;-63
2023/05/08 12:52:07;;;;;;;3.03;1.10;;;15.90;99.90;;;;;;5056946;28;20048;-63
2023/05/08 12:54:40;;;;;;;5.95;1.50;;;15.90;99.90;;;;;;5051069;28;20088;-63
2023/05/08 12:57:14;;;;;;;3.42;1.30;;;15.80;99.90;;;;;;5051963;28;20325;-64